Time;durP1;ratioP1;P1;durP2;ratioP2;P2;SDS_P1;SDS_P2;PMS_P1;PMS_P2;Temp;Humidity;BMP_temperature;BMP_pressure;BME280_temperature;BME280_humidity;BME280_pressure;Samples;Min_cycle;Max_cycle;Signal;HPM_P1;HPM_P2
2022/07/22 00:00:56;;;;;;;9.07;2.50;;;22.50;61.20;;;;;;2094609;28;20032;-87
2022/07/22 00:01:57;;;;;;;5.83;2.23;;;22.50;61.10;;;;;;2090791;28;20059;-87
2022/07/22 00:02:58;;;;;;;7.90;2.67;;;22.50;61.20;;;;;;2094046;28;20017;-87
2022/07/22 00:03:59;;;;;;;6.90;2.10;;;22.50;61.10;;;;;;2083120;28;20037;-87
2022/07/22 00:05:00;;;;;;;6.95;2.30;;;22.50;61.10;;;;;;2091352;28;20025;-87
2022/07/22 00:06:01;;;;;;;6.20;2.10;;;22.50;61.10;;;;;;2094229;28;20517;-86
2022/07/22 00:07:02;;;;;;;5.97;2.60;;;22.60;61.10;;;;;;2082842;28;20456;-87
2022/07/22 00:08:03;;;;;;;3.43;1.93;;;22.50;61.10;;;;;;2089685;28;20036;-86
2022/07/22 00:09:04;;;;;;;8.25;1.90;;;22.50;61.20;;;;;;2107267;28;20640;-87
2022/07/22 00:10:06;;;;;;;7.03;2.37;;;22.50;61.10;;;;;;2099453;28;20102;-87
2022/07/22 00:11:07;;;;;;;4.40;2.22;;;22.50;61.30;;;;;;2083273;28;20707;-87
2022/07/22 00:12:08;;;;;;;5.60;1.97;;;22.50;61.40;;;;;;2083371;28;20068;-87
2022/07/22 00:13:09;;;;;;;3.77;2.00;;;22.50;61.30;;;;;;2091443;28;20577;-87
2022/07/22 00:14:10;;;;;;;7.77;2.07;;;22.50;61.30;;;;;;2083143;28;20294;-87
2022/07/22 00:15:11;;;;;;;8.13;2.03;;;22.50;61.30;;;;;;2091097;28;20483;-87
2022/07/22 00:16:12;;;;;;;6.82;2.35;;;22.50;61.20;;;;;;2094158;28;20040;-87
2022/07/22 00:17:13;;;;;;;6.93;1.85;;;22.50;61.20;;;;;;2091468;28;20051;-87
2022/07/22 00:18:13;;;;;;;6.97;2.10;;;22.40;61.20;;;;;;2083174;28;20065;-87
2022/07/22 00:19:14;;;;;;;7.00;2.07;;;22.40;61.20;;;;;;2091433;28;20458;-87
2022/07/22 00:20:15;;;;;;;6.80;2.10;;;22.40;61.40;;;;;;2083324;28;20080;-86
2022/07/22 00:21:16;;;;;;;8.40;2.00;;;22.40;61.50;;;;;;2091560;28;20071;-87
2022/07/22 00:22:17;;;;;;;4.03;2.00;;;22.40;61.40;;;;;;2099118;28;20025;-87
2022/07/22 00:23:18;;;;;;;3.87;2.20;;;22.40;61.30;;;;;;2099800;28;20062;-87
2022/07/22 00:24:19;;;;;;;4.55;2.10;;;22.40;61.40;;;;;;2091340;28;20025;-87
2022/07/22 00:25:20;;;;;;;5.03;2.25;;;22.40;61.40;;;;;;2098722;28;20024;-87
2022/07/22 00:26:21;;;;;;;6.37;2.33;;;22.40;61.40;;;;;;2099930;28;20025;-87
2022/07/22 00:27:21;;;;;;;4.47;2.13;;;22.50;61.40;;;;;;2108195;28;20477;-87
2022/07/22 00:28:22;;;;;;;5.33;2.23;;;22.50;62.10;;;;;;2098889;28;20105;-87
2022/07/22 00:29:23;;;;;;;3.57;2.40;;;22.50;61.40;;;;;;2100777;28;20033;-87
2022/07/22 00:30:24;;;;;;;6.23;2.37;;;22.50;61.40;;;;;;2099459;28;20021;-87
2022/07/22 00:31:25;;;;;;;5.68;2.63;;;22.50;61.30;;;;;;2107878;28;20016;-87
2022/07/22 00:32:26;;;;;;;12.25;2.25;;;22.50;61.40;;;;;;2107816;28;20044;-87
2022/07/22 00:33:27;;;;;;;5.80;2.67;;;22.50;61.50;;;;;;2099453;28;20149;-87
2022/07/22 00:34:27;;;;;;;4.70;2.23;;;22.50;61.40;;;;;;2107854;28;20024;-87
2022/07/22 00:35:28;;;;;;;5.60;2.20;;;22.50;61.50;;;;;;2099797;28;20113;-87
2022/07/22 00:36:30;;;;;;;7.47;2.13;;;22.50;61.50;;;;;;2084378;28;20029;-87
2022/07/22 00:37:31;;;;;;;;;;;22.50;61.40;;;;;;2099994;28;20025;-87
2022/07/22 00:38:32;;;;;;;4.95;1.90;;;22.50;61.40;;;;;;2099459;28;20358;-87
2022/07/22 00:39:33;;;;;;;7.75;2.45;;;22.50;61.50;;;;;;2091219;28;20056;-87
2022/07/22 00:40:34;;;;;;;6.28;2.25;;;22.50;61.60;;;;;;2090011;28;20057;-87
2022/07/22 00:41:35;;;;;;;4.33;2.20;;;22.50;61.50;;;;;;2082470;28;20096;-87
2022/07/22 00:42:36;;;;;;;6.80;2.40;;;22.50;61.50;;;;;;2091491;28;20032;-87
2022/07/22 00:43:55;;;;;;;4.73;2.23;;;22.50;61.60;;;;;;2095474;28;20024;-87
2022/07/22 00:44:56;;;;;;;6.68;2.42;;;22.50;61.60;;;;;;2099198;28;20052;-87
2022/07/22 00:45:58;;;;;;;5.50;2.80;;;22.50;61.50;;;;;;2091389;28;20040;-87
2022/07/22 00:46:59;;;;;;;6.22;2.17;;;22.50;61.60;;;;;;2091137;28;20033;-86
2022/07/22 00:48:00;;;;;;;7.20;2.38;;;22.50;61.60;;;;;;2082871;28;20053;-87
2022/07/22 00:49:01;;;;;;;3.95;1.95;;;22.50;61.60;;;;;;2082221;28;20025;-87
2022/07/22 00:50:03;;;;;;;4.05;2.30;;;22.50;61.70;;;;;;2083898;28;20068;-87
2022/07/22 00:51:04;;;;;;;5.95;2.22;;;22.50;61.60;;;;;;2091261;28;20025;-87
2022/07/22 00:52:05;;;;;;;9.30;2.07;;;22.50;61.70;;;;;;2095318;28;20337;-87
2022/07/22 00:53:07;;;;;;;4.20;2.25;;;22.40;61.70;;;;;;2094963;28;20023;-87
2022/07/22 00:54:08;;;;;;;4.10;2.50;;;22.40;61.70;;;;;;2098081;28;20043;-87
2022/07/22 00:55:10;;;;;;;6.38;2.30;;;22.40;61.70;;;;;;2090454;28;20021;-87
2022/07/22 00:56:11;;;;;;;6.20;2.53;;;22.40;61.70;;;;;;2082840;28;20044;-87
2022/07/22 00:57:12;;;;;;;6.03;2.88;;;22.40;61.80;;;;;;2086912;28;20127;-87
2022/07/22 00:58:12;;;;;;;5.13;2.50;;;22.40;61.80;;;;;;2091254;28;20029;-87
2022/07/22 00:59:14;;;;;;;5.82;2.47;;;22.40;61.80;;;;;;2088968;28;20033;-87
2022/07/22 01:00:19;;;;;;;5.30;2.35;;;22.40;61.90;;;;;;2107944;28;20454;-86
2022/07/22 01:01:20;;;;;;;9.70;2.70;;;22.40;62.70;;;;;;2103826;28;20021;-87
2022/07/22 01:02:21;;;;;;;9.23;2.42;;;22.40;62.20;;;;;;2091270;28;20087;-87
2022/07/22 01:03:22;;;;;;;6.67;2.47;;;22.40;62.60;;;;;;2099605;28;20032;-87
2022/07/22 01:04:22;;;;;;;5.83;2.30;;;22.40;63.00;;;;;;2085984;28;20017;-87
2022/07/22 01:05:23;;;;;;;4.50;2.23;;;22.40;63.30;;;;;;2091217;28;20079;-87
2022/07/22 01:06:24;;;;;;;4.93;2.47;;;22.40;63.60;;;;;;2096932;28;20025;-87
2022/07/22 01:07:25;;;;;;;5.70;2.50;;;22.40;63.80;;;;;;2099489;28;20448;-85
2022/07/22 01:08:26;;;;;;;5.03;2.23;;;22.40;64.10;;;;;;2090525;28;20103;-87
2022/07/22 01:09:27;;;;;;;4.82;2.63;;;22.40;64.10;;;;;;2083084;28;20352;-87
2022/07/22 01:10:27;;;;;;;8.23;3.10;;;22.40;64.20;;;;;;2074594;28;20060;-87
2022/07/22 01:11:28;;;;;;;6.73;2.77;;;22.40;65.30;;;;;;2088478;28;20446;-87
2022/07/22 01:12:29;;;;;;;5.30;2.80;;;22.40;64.70;;;;;;2099660;28;20062;-87
2022/07/22 01:13:30;;;;;;;5.87;2.73;;;22.30;64.50;;;;;;2099304;28;20060;-87
2022/07/22 01:14:31;;;;;;;5.33;2.57;;;22.40;64.50;;;;;;2099155;28;20070;-87
2022/07/22 01:15:33;;;;;;;6.83;2.80;;;22.40;64.60;;;;;;2098582;28;20036;-87
2022/07/22 01:16:34;;;;;;;6.22;3.30;;;22.40;64.70;;;;;;2096400;28;20032;-87
2022/07/22 01:17:35;;;;;;;8.55;2.90;;;22.40;65.20;;;;;;2091060;28;20047;-87
2022/07/22 01:18:38;;;;;;;4.93;2.78;;;22.40;65.30;;;;;;2090750;28;20033;-87
2022/07/22 01:19:39;;;;;;;7.57;3.33;;;22.30;65.30;;;;;;2091044;28;20047;-87
2022/07/22 01:20:41;;;;;;;10.35;3.33;;;22.30;65.20;;;;;;2082695;28;20083;-87
2022/07/22 01:21:42;;;;;;;8.50;3.50;;;22.30;65.20;;;;;;2084662;28;20032;-87
2022/07/22 01:22:44;;;;;;;10.77;3.03;;;22.30;65.30;;;;;;2091054;28;20482;-87
2022/07/22 01:23:45;;;;;;;6.25;3.33;;;22.30;65.40;;;;;;2090873;28;20036;-88
2022/07/22 01:24:46;;;;;;;5.38;3.22;;;22.20;65.40;;;;;;2085986;28;20482;-87
2022/07/22 01:25:47;;;;;;;4.97;3.22;;;22.20;65.40;;;;;;2090898;28;20025;-87
2022/07/22 01:26:48;;;;;;;7.50;4.10;;;22.20;65.30;;;;;;2090774;28;20017;-87
2022/07/22 01:27:49;;;;;;;6.83;3.40;;;22.30;65.60;;;;;;2082452;28;20018;-88
2022/07/22 01:28:50;;;;;;;11.53;3.67;;;22.20;65.60;;;;;;2078828;28;20025;-87
2022/07/22 01:29:51;;;;;;;8.30;3.53;;;22.20;65.60;;;;;;2093790;28;20024;-87
2022/07/22 01:30:52;;;;;;;8.50;3.90;;;22.20;65.60;;;;;;2099184;28;20063;-87
2022/07/22 01:31:53;;;;;;;8.77;3.60;;;22.20;65.60;;;;;;2091239;28;20128;-87
2022/07/22 01:32:54;;;;;;;6.53;3.57;;;22.20;65.70;;;;;;2091022;28;20459;-87
2022/07/22 01:33:55;;;;;;;6.63;3.40;;;22.10;65.70;;;;;;2091110;28;20029;-87
2022/07/22 01:34:56;;;;;;;7.97;3.30;;;22.10;65.90;;;;;;2084542;28;20029;-87
2022/07/22 01:35:57;;;;;;;7.10;3.92;;;22.10;65.90;;;;;;2082769;28;20308;-87
2022/07/22 01:36:58;;;;;;;6.70;3.65;;;22.00;65.80;;;;;;2077431;28;20092;-87
2022/07/22 01:37:59;;;;;;;7.57;3.63;;;22.00;66.00;;;;;;2091150;28;20107;-87
2022/07/22 01:39:00;;;;;;;6.35;3.08;;;22.00;66.00;;;;;;2099742;28;20037;-87
2022/07/22 01:40:01;;;;;;;6.33;3.30;;;22.00;65.90;;;;;;2091132;28;20340;-87
2022/07/22 01:41:02;;;;;;;6.33;3.53;;;22.00;65.90;;;;;;2082644;28;20044;-87
2022/07/22 01:42:03;;;;;;;7.82;3.60;;;22.00;65.90;;;;;;2079429;28;20025;-86
2022/07/22 01:43:05;;;;;;;6.70;3.50;;;22.00;66.00;;;;;;2091136;28;20028;-87
2022/07/22 01:44:06;;;;;;;6.53;3.38;;;22.00;66.00;;;;;;2082717;28;20045;-87
2022/07/22 01:45:08;;;;;;;4.75;3.20;;;22.00;66.00;;;;;;2077594;28;20121;-87
2022/07/22 01:46:09;;;;;;;7.15;3.65;;;21.90;65.80;;;;;;2091052;28;20044;-87
2022/07/22 01:47:14;;;;;;;5.70;3.53;;;21.90;65.90;;;;;;2082934;28;20022;-87
2022/07/22 01:48:15;;;;;;;4.90;3.23;;;21.90;66.10;;;;;;2082746;28;20025;-87
2022/07/22 01:49:16;;;;;;;9.45;3.45;;;21.90;66.10;;;;;;2099104;28;20032;-87
2022/07/22 01:50:17;;;;;;;8.20;4.13;;;21.90;66.00;;;;;;2090791;28;20024;-87
2022/07/22 01:51:19;;;;;;;7.70;3.60;;;21.90;66.10;;;;;;2090908;28;20359;-87
2022/07/22 01:52:20;;;;;;;9.52;4.07;;;21.90;66.80;;;;;;2098838;28;20020;-87
2022/07/22 01:53:21;;;;;;;6.35;3.67;;;21.90;66.00;;;;;;2090772;28;20036;-87
2022/07/22 01:54:22;;;;;;;6.85;3.40;;;21.90;66.00;;;;;;2082527;28;20133;-87
2022/07/22 01:55:23;;;;;;;7.33;3.43;;;21.90;66.00;;;;;;2087889;28;20021;-87
2022/07/22 01:56:24;;;;;;;5.23;3.23;;;21.90;66.00;;;;;;2099071;28;20024;-87
2022/07/22 01:57:25;;;;;;;8.40;3.53;;;21.90;66.10;;;;;;2090564;28;20025;-87
2022/07/22 01:58:27;;;;;;;5.07;3.42;;;21.90;66.00;;;;;;2075498;28;20045;-87
2022/07/22 01:59:30;;;;;;;6.43;3.72;;;21.80;66.10;;;;;;2086479;28;20443;-87
2022/07/22 02:00:33;;;;;;;6.20;3.72;;;21.80;66.00;;;;;;2083136;28;20262;-88
2022/07/22 02:01:35;;;;;;;5.85;3.75;;;21.80;66.00;;;;;;2082182;28;20021;-87
2022/07/22 02:02:36;;;;;;;7.53;3.70;;;21.80;66.00;;;;;;2084900;28;20124;-87
2022/07/22 02:03:37;;;;;;;5.07;2.90;;;21.70;66.00;;;;;;2099063;28;20265;-87
2022/07/22 02:04:39;;;;;;;;;;;21.80;66.10;;;;;;2096570;28;20362;-87
2022/07/22 02:05:40;;;;;;;3.55;1.95;;;21.80;66.00;;;;;;2099394;28;19919;-87
2022/07/22 02:06:52;;;;;;;5.15;3.72;;;21.70;65.80;;;;;;2084121;28;20036;-87
2022/07/22 02:07:53;;;;;;;6.20;3.60;;;21.70;66.00;;;;;;2086454;28;20025;-87
2022/07/22 02:08:58;;;;;;;5.00;3.13;;;21.60;66.10;;;;;;2082455;28;20426;-87
2022/07/22 02:10:29;;;;;;;5.03;3.35;;;21.60;66.10;;;;;;2086105;28;20033;-87
2022/07/22 02:11:29;;;;;;;5.13;3.13;;;21.60;66.20;;;;;;2088192;28;20067;-87
2022/07/22 02:12:31;;;;;;;6.65;3.53;;;21.60;66.30;;;;;;2082658;28;20029;-87
2022/07/22 02:13:32;;;;;;;6.70;3.47;;;21.60;66.00;;;;;;2082413;28;20018;-87
2022/07/22 02:14:33;;;;;;;6.88;3.75;;;21.70;66.20;;;;;;2088494;28;20488;-87
2022/07/22 02:15:34;;;;;;;5.87;3.53;;;21.70;66.00;;;;;;2098264;28;20088;-87
2022/07/22 02:16:36;;;;;;;9.05;3.45;;;21.70;65.90;;;;;;2096497;28;20021;-87
2022/07/22 02:17:40;;;;;;;6.07;3.72;;;21.70;65.90;;;;;;2090984;28;20090;-87
2022/07/22 02:18:42;;;;;;;5.47;3.83;;;21.70;65.80;;;;;;2091274;28;20266;-87
2022/07/22 02:19:43;;;;;;;8.35;3.63;;;21.70;65.80;;;;;;2086050;28;20471;-87
2022/07/22 02:20:46;;;;;;;6.15;3.38;;;21.70;65.80;;;;;;2082942;28;20529;-87
2022/07/22 02:21:49;;;;;;;6.38;3.22;;;21.70;65.70;;;;;;2097995;28;20265;-87
2022/07/22 02:22:50;;;;;;;6.45;3.53;;;21.70;65.70;;;;;;2083685;28;20034;-87
2022/07/22 02:23:51;;;;;;;8.65;3.95;;;21.60;65.70;;;;;;2091194;28;20120;-87
2022/07/22 02:24:53;;;;;;;8.20;3.47;;;21.60;65.90;;;;;;2086635;28;20021;-86
2022/07/22 02:25:53;;;;;;;7.60;3.80;;;21.70;65.90;;;;;;2082448;28;20109;-87
2022/07/22 02:26:54;;;;;;;10.67;3.93;;;21.70;65.80;;;;;;2088996;28;20094;-87
2022/07/22 02:27:55;;;;;;;6.07;3.63;;;21.70;65.80;;;;;;2090567;28;20025;-87
2022/07/22 02:28:56;;;;;;;7.47;3.63;;;21.70;65.70;;;;;;2085377;28;20021;-87
2022/07/22 02:29:57;;;;;;;7.05;3.70;;;21.70;65.80;;;;;;2090475;28;20107;-87
2022/07/22 02:30:58;;;;;;;10.07;3.20;;;21.70;65.70;;;;;;2082956;28;20442;-87
2022/07/22 02:31:59;;;;;;;7.33;3.13;;;21.70;65.60;;;;;;2092306;28;20028;-87
2022/07/22 02:33:00;;;;;;;10.25;3.88;;;21.70;65.70;;;;;;2092025;28;20104;-87
2022/07/22 02:34:01;;;;;;;4.88;3.38;;;21.70;65.70;;;;;;2083921;28;20025;-87
2022/07/22 02:35:04;;;;;;;7.75;3.97;;;21.70;65.60;;;;;;2087529;28;20017;-87
2022/07/22 02:36:05;;;;;;;6.95;3.47;;;21.70;65.60;;;;;;2092451;28;20262;-87
2022/07/22 02:37:08;;;;;;;7.22;3.90;;;21.70;65.60;;;;;;2100323;28;20372;-87
2022/07/22 02:38:09;;;;;;;7.27;3.47;;;21.70;65.70;;;;;;2093768;28;20292;-87
2022/07/22 02:39:12;;;;;;;8.30;3.20;;;21.70;65.70;;;;;;2092069;28;20025;-87
2022/07/22 02:40:13;;;;;;;;;;;21.70;65.70;;;;;;2084634;28;20299;-87
2022/07/22 02:41:14;;;;;;;8.00;2.97;;;21.70;65.70;;;;;;2084044;28;19905;-87
2022/07/22 02:42:22;;;;;;;10.63;3.67;;;21.70;65.70;;;;;;2092437;28;20254;-87
2022/07/22 02:43:25;;;;;;;6.90;3.33;;;21.60;65.70;;;;;;2100408;28;20261;-87
2022/07/22 02:44:27;;;;;;;6.45;3.90;;;21.60;65.80;;;;;;2091901;28;20632;-87
2022/07/22 02:45:29;;;;;;;7.78;3.60;;;21.50;65.90;;;;;;2089724;28;20078;-87
2022/07/22 02:46:30;;;;;;;6.07;3.30;;;21.60;66.00;;;;;;2092180;28;20379;-87
2022/07/22 02:47:34;;;;;;;4.57;2.75;;;21.60;66.70;;;;;;2092251;28;20016;-87
2022/07/22 02:48:35;;;;;;;8.75;3.50;;;21.60;65.90;;;;;;2083702;28;20732;-87
2022/07/22 02:49:36;;;;;;;7.00;3.40;;;21.60;66.00;;;;;;2083823;28;20033;-87
2022/07/22 02:50:38;;;;;;;7.07;3.38;;;21.60;66.00;;;;;;2081592;28;20028;-87
2022/07/22 02:51:40;;;;;;;6.18;3.58;;;21.60;65.90;;;;;;2084141;28;20033;-87
2022/07/22 02:52:42;;;;;;;6.25;3.25;;;21.60;65.80;;;;;;2083962;28;20263;-88
2022/07/22 02:53:44;;;;;;;9.70;3.60;;;21.60;65.80;;;;;;2083979;28;20341;-87
2022/07/22 02:54:44;;;;;;;6.27;3.50;;;21.70;65.80;;;;;;2083886;28;20293;-87
2022/07/22 02:55:45;;;;;;;8.47;3.40;;;21.70;65.70;;;;;;2089181;28;20462;-87
2022/07/22 02:56:46;;;;;;;6.50;3.40;;;21.60;65.70;;;;;;2099564;28;20272;-87
2022/07/22 02:57:47;;;;;;;7.80;3.47;;;21.60;65.80;;;;;;2091966;28;20106;-87
2022/07/22 02:58:51;;;;;;;6.23;2.90;;;21.60;65.80;;;;;;2095215;28;20112;-87
2022/07/22 02:59:52;;;;;;;6.05;3.30;;;21.60;65.80;;;;;;2099338;28;20035;-87
2022/07/22 03:00:53;;;;;;;5.23;2.93;;;21.60;65.70;;;;;;2097684;28;20766;-87
2022/07/22 03:01:54;;;;;;;8.10;3.37;;;21.60;65.60;;;;;;2091281;28;20033;-87
2022/07/22 03:02:55;;;;;;;6.60;2.92;;;21.60;65.90;;;;;;2083643;28;20169;-87
2022/07/22 03:03:56;;;;;;;9.43;3.60;;;21.60;65.90;;;;;;2083919;28;20136;-87
2022/07/22 03:04:59;;;;;;;9.38;2.85;;;21.60;65.90;;;;;;2084598;28;20018;-87
2022/07/22 03:06:00;;;;;;;6.07;3.37;;;21.60;65.90;;;;;;2092357;28;20371;-87
2022/07/22 03:07:24;;;;;;;7.13;3.22;;;21.60;65.80;;;;;;2094948;28;20052;-87
2022/07/22 03:08:25;;;;;;;9.83;3.53;;;21.60;65.90;;;;;;2094254;28;20265;-87
2022/07/22 03:09:26;;;;;;;8.68;3.20;;;21.60;65.90;;;;;;2092062;28;20032;-87
2022/07/22 03:10:27;;;;;;;5.37;3.20;;;21.60;65.90;;;;;;2100177;28;20043;-87
2022/07/22 03:11:28;;;;;;;3.97;2.90;;;21.50;65.80;;;;;;2100166;28;20024;-87
2022/07/22 03:12:29;;;;;;;5.97;3.13;;;21.50;66.00;;;;;;2100205;28;20042;-87
2022/07/22 03:13:30;;;;;;;6.77;2.97;;;21.50;66.10;;;;;;2091795;28;20521;-87
2022/07/22 03:14:31;;;;;;;10.47;3.67;;;21.60;66.10;;;;;;2091894;28;20067;-87
2022/07/22 03:15:31;;;;;;;6.27;2.80;;;21.50;66.00;;;;;;2099402;28;20261;-88
2022/07/22 03:16:32;;;;;;;10.63;3.50;;;21.50;66.00;;;;;;2094499;28;20104;-88
2022/07/22 03:17:34;;;;;;;8.03;3.33;;;21.60;65.90;;;;;;2083567;28;20411;-88
2022/07/22 03:18:35;;;;;;;7.63;3.00;;;21.60;65.80;;;;;;2091910;28;20463;-87
2022/07/22 03:19:36;;;;;;;7.70;2.77;;;21.60;65.80;;;;;;2091777;28;20262;-87
2022/07/22 03:20:37;;;;;;;5.37;2.70;;;21.60;65.70;;;;;;2097044;28;20064;-87
2022/07/22 03:21:38;;;;;;;6.72;3.17;;;21.60;65.90;;;;;;2091142;28;20115;-88
2022/07/22 03:22:38;;;;;;;9.13;2.83;;;21.60;65.90;;;;;;2091825;28;20063;-87
2022/07/22 03:23:39;;;;;;;5.88;3.22;;;21.50;65.90;;;;;;2091750;28;20036;-87
2022/07/22 03:24:40;;;;;;;8.30;2.90;;;21.50;65.90;;;;;;2100080;28;20426;-87
2022/07/22 03:25:41;;;;;;;4.90;3.03;;;21.50;65.80;;;;;;2100145;28;20040;-87
2022/07/22 03:26:42;;;;;;;7.50;2.85;;;21.60;65.80;;;;;;2100093;28;20021;-87
2022/07/22 03:27:43;;;;;;;7.10;3.07;;;21.50;66.00;;;;;;2099795;28;20176;-87
2022/07/22 03:28:44;;;;;;;10.47;2.90;;;21.50;66.00;;;;;;2098988;28;20020;-87
2022/07/22 03:29:45;;;;;;;11.87;3.33;;;21.50;66.00;;;;;;2085629;28;20045;-87
2022/07/22 03:30:46;;;;;;;8.07;2.53;;;21.50;65.90;;;;;;2091520;28;20044;-87
2022/07/22 03:31:48;;;;;;;7.05;2.67;;;21.50;65.80;;;;;;2094949;28;20087;-87
2022/07/22 03:32:50;;;;;;;7.45;2.55;;;21.50;66.70;;;;;;2083673;28;20275;-88
2022/07/22 03:33:50;;;;;;;6.25;3.00;;;21.50;65.90;;;;;;2099764;28;20346;-87
2022/07/22 03:34:52;;;;;;;5.27;2.83;;;21.50;65.90;;;;;;2097462;28;20029;-87
2022/07/22 03:35:53;;;;;;;6.57;2.80;;;21.50;65.80;;;;;;2083438;28;20021;-87
2022/07/22 03:36:53;;;;;;;6.80;3.07;;;21.50;65.80;;;;;;2078486;28;20440;-88
2022/07/22 03:37:54;;;;;;;7.30;3.40;;;21.50;65.90;;;;;;2083469;28;20029;-87
2022/07/22 03:38:57;;;;;;;7.55;2.45;;;21.50;66.00;;;;;;2091220;28;20040;-87
2022/07/22 03:39:58;;;;;;;6.70;2.90;;;21.50;66.00;;;;;;2085833;28;20258;-87
2022/07/22 03:40:59;;;;;;;7.00;2.90;;;21.50;65.90;;;;;;2083439;28;20033;-87
2022/07/22 03:42:00;;;;;;;5.83;2.60;;;21.50;66.00;;;;;;2079513;28;20108;-87
2022/07/22 03:43:02;;;;;;;5.85;2.60;;;21.50;66.00;;;;;;2075355;28;20448;-87
2022/07/22 03:44:03;;;;;;;10.17;3.00;;;21.50;65.90;;;;;;2090399;28;20293;-87
2022/07/22 03:45:04;;;;;;;6.53;2.70;;;21.50;65.80;;;;;;2077403;28;20519;-87
2022/07/22 03:46:08;;;;;;;9.35;3.10;;;21.50;65.70;;;;;;2083884;28;20111;-87
2022/07/22 03:47:08;;;;;;;5.80;2.70;;;21.50;65.70;;;;;;2083876;28;20018;-87
2022/07/22 03:48:10;;;;;;;8.13;3.00;;;21.50;65.70;;;;;;2091649;28;20029;-86
2022/07/22 03:49:13;;;;;;;4.45;2.42;;;21.50;65.60;;;;;;2091638;28;20017;-87
2022/07/22 03:50:15;;;;;;;12.43;2.40;;;21.50;65.60;;;;;;2086414;28;20260;-87
2022/07/22 03:51:16;;;;;;;7.87;2.73;;;21.50;65.60;;;;;;2083324;28;20748;-87
2022/07/22 03:52:18;;;;;;;7.88;2.55;;;21.50;65.70;;;;;;2077871;28;20018;-87
2022/07/22 03:53:20;;;;;;;6.35;2.80;;;21.50;65.70;;;;;;2081632;28;20217;-87
2022/07/22 03:54:21;;;;;;;5.38;2.50;;;21.50;65.70;;;;;;2099774;28;20264;-87
2022/07/22 03:55:22;;;;;;;5.90;2.60;;;21.50;65.60;;;;;;2090810;28;20055;-87
2022/07/22 03:56:26;;;;;;;7.22;2.55;;;21.50;65.70;;;;;;2084185;28;20104;-87
2022/07/22 03:57:29;;;;;;;8.20;3.33;;;21.50;65.60;;;;;;2102510;28;20340;-87
2022/07/22 03:58:37;;;;;;;11.07;2.78;;;21.50;65.70;;;;;;2092697;28;20028;-87
2022/07/22 03:59:38;;;;;;;6.63;2.27;;;21.50;65.70;;;;;;2086611;28;20052;-87
2022/07/22 04:00:39;;;;;;;5.07;2.47;;;21.40;65.70;;;;;;2083592;28;20030;-87
2022/07/22 04:01:41;;;;;;;8.25;2.78;;;21.40;65.80;;;;;;2082773;28;20060;-87
2022/07/22 04:02:44;;;;;;;8.45;2.80;;;21.40;65.90;;;;;;2090275;28;20094;-87
2022/07/22 04:03:52;;;;;;;7.18;2.60;;;21.40;65.80;;;;;;2089167;28;20255;-87
2022/07/22 04:05:03;;;;;;;8.88;2.80;;;21.40;65.80;;;;;;2086844;28;20025;-87
2022/07/22 04:06:06;;;;;;;8.73;2.55;;;21.40;65.80;;;;;;2090551;28;20600;-87
2022/07/22 04:07:21;;;;;;;9.93;2.95;;;21.40;65.80;;;;;;2088000;28;20033;-87
2022/07/22 04:08:22;;;;;;;4.83;2.30;;;21.40;65.80;;;;;;2090854;28;20270;-87
2022/07/22 04:09:23;;;;;;;12.27;2.70;;;21.40;65.70;;;;;;2091399;28;20021;-87
2022/07/22 04:10:24;;;;;;;6.85;2.53;;;21.40;65.90;;;;;;2084000;28;20099;-87
2022/07/22 04:11:26;;;;;;;8.67;2.63;;;21.40;65.80;;;;;;2091371;28;20045;-87
2022/07/22 04:12:27;;;;;;;6.22;2.67;;;21.40;65.80;;;;;;2091447;28;20025;-87
2022/07/22 04:13:44;;;;;;;6.60;2.20;;;21.40;65.80;;;;;;2093975;28;20071;-87
2022/07/22 04:14:45;;;;;;;6.63;3.00;;;21.30;66.00;;;;;;2091413;28;20760;-87
2022/07/22 04:15:45;;;;;;;9.50;2.50;;;21.30;66.00;;;;;;2090696;28;20464;-86
2022/07/22 04:16:46;;;;;;;6.77;2.40;;;21.30;66.20;;;;;;2083131;28;20043;-87
2022/07/22 04:17:47;;;;;;;9.45;3.08;;;21.30;66.20;;;;;;2088571;28;20482;-87
2022/07/22 04:18:48;;;;;;;6.83;2.50;;;21.30;66.20;;;;;;2091098;28;20037;-87
2022/07/22 04:19:49;;;;;;;7.70;2.72;;;21.30;66.10;;;;;;2091401;28;20033;-87
2022/07/22 04:21:00;;;;;;;21.15;3.05;;;21.40;66.10;;;;;;2092314;28;20063;-87
2022/07/22 04:22:06;;;;;;;6.47;2.60;;;21.40;66.10;;;;;;2083353;28;20278;-87
2022/07/22 04:23:07;;;;;;;5.43;2.30;;;21.40;66.00;;;;;;2082839;28;20354;-87
2022/07/22 04:24:08;;;;;;;7.53;2.60;;;21.40;66.00;;;;;;2082941;28;20033;-87
2022/07/22 04:25:09;;;;;;;6.20;2.65;;;21.40;66.10;;;;;;2090787;28;20454;-87
2022/07/22 04:26:10;;;;;;;4.27;2.00;;;21.30;66.10;;;;;;2086461;28;20021;-87
2022/07/22 04:27:11;;;;;;;9.38;2.80;;;21.30;66.00;;;;;;2083223;28;20036;-87
2022/07/22 04:28:12;;;;;;;8.45;2.83;;;21.30;66.10;;;;;;2082648;28;20549;-86
2022/07/22 04:29:15;;;;;;;5.90;2.38;;;21.30;66.00;;;;;;2083741;28;20026;-87
2022/07/22 04:30:16;;;;;;;6.13;2.93;;;21.30;66.10;;;;;;2082993;28;20273;-87
2022/07/22 04:31:20;;;;;;;6.63;2.13;;;21.30;66.20;;;;;;2083341;28;20029;-87
2022/07/22 04:32:26;;;;;;;9.27;2.75;;;21.30;66.20;;;;;;2083536;28;20290;-86
2022/07/22 04:33:26;;;;;;;5.47;2.40;;;21.30;66.20;;;;;;2098770;28;20028;-87
2022/07/22 04:34:27;;;;;;;6.77;2.63;;;21.30;66.10;;;;;;2082949;28;20435;-87
2022/07/22 04:35:30;;;;;;;;;;;21.30;66.10;;;;;;2083089;28;20022;-87
2022/07/22 04:36:42;;;;;;;6.03;2.50;;;21.30;66.20;;;;;;2092829;28;20015;-86
2022/07/22 04:37:43;;;;;;;5.37;2.70;;;21.30;66.20;;;;;;2083985;28;20460;-87
2022/07/22 04:38:44;;;;;;;4.97;2.45;;;21.30;66.30;;;;;;2091215;28;20332;-87
2022/07/22 04:39:46;;;;;;;5.90;2.67;;;21.30;66.20;;;;;;2094986;28;20498;-87
2022/07/22 04:40:46;;;;;;;8.27;2.77;;;21.30;66.30;;;;;;2099448;28;20047;-87
2022/07/22 04:41:47;;;;;;;8.33;2.67;;;21.30;66.40;;;;;;2090388;28;20062;-86
2022/07/22 04:42:51;;;;;;;5.05;2.50;;;21.30;67.10;;;;;;2083658;28;20059;-87
2022/07/22 04:43:51;;;;;;;8.80;2.60;;;21.30;66.40;;;;;;2082538;28;20263;-87
2022/07/22 04:44:55;;;;;;;5.38;2.63;;;21.30;66.30;;;;;;2083566;28;20027;-87
2022/07/22 04:45:56;;;;;;;8.63;2.80;;;21.30;66.40;;;;;;2082973;28;20274;-87
2022/07/22 04:47:00;;;;;;;6.78;2.67;;;21.30;66.40;;;;;;2084000;28;20029;-87
2022/07/22 04:48:02;;;;;;;9.07;2.70;;;21.30;66.40;;;;;;2092930;28;20274;-87
2022/07/22 04:49:04;;;;;;;8.55;2.70;;;21.30;66.50;;;;;;2082584;28;20498;-87
2022/07/22 04:50:05;;;;;;;7.20;2.80;;;21.30;66.50;;;;;;2083214;28;20282;-86
2022/07/22 04:51:06;;;;;;;6.28;2.67;;;21.30;66.50;;;;;;2083089;28;20340;-87
2022/07/22 04:52:09;;;;;;;10.57;3.15;;;21.30;66.60;;;;;;2083197;28;20044;-87
2022/07/22 04:53:22;;;;;;;8.80;2.67;;;21.30;66.60;;;;;;2082053;28;20620;-87
2022/07/22 04:54:23;;;;;;;7.17;2.60;;;21.30;66.80;;;;;;2084529;28;20354;-87
2022/07/22 04:55:27;;;;;;;8.15;2.95;;;21.30;66.80;;;;;;2098031;28;20469;-88
2022/07/22 04:56:28;;;;;;;6.63;3.20;;;21.30;66.80;;;;;;2091240;28;20258;-87
2022/07/22 04:57:28;;;;;;;7.90;2.60;;;21.30;66.80;;;;;;2091471;28;20029;-87
2022/07/22 04:58:32;;;;;;;7.10;2.20;;;21.30;66.80;;;;;;2091018;28;20036;-87
2022/07/22 04:59:34;;;;;;;4.53;2.70;;;21.30;66.90;;;;;;2075637;28;20828;-87
2022/07/22 05:00:35;;;;;;;7.50;2.40;;;21.20;66.90;;;;;;2086804;28;20441;-87
2022/07/22 05:01:36;;;;;;;5.20;2.58;;;21.20;66.90;;;;;;2082302;28;20033;-87
2022/07/22 05:02:37;;;;;;;8.25;3.15;;;21.30;67.00;;;;;;2083072;28;20033;-87
2022/07/22 05:03:42;;;;;;;10.50;3.40;;;21.30;67.00;;;;;;2089860;28;20051;-87
2022/07/22 05:04:42;;;;;;;8.23;2.42;;;21.30;67.00;;;;;;2091443;28;20383;-87
2022/07/22 05:05:43;;;;;;;12.00;2.87;;;21.30;67.00;;;;;;2082827;28;20258;-87
2022/07/22 05:06:45;;;;;;;;;;;21.30;67.00;;;;;;2091737;28;20021;-87
2022/07/22 05:07:46;;;;;;;8.43;2.88;;;21.30;67.00;;;;;;2099475;28;19934;-87
2022/07/22 05:08:47;;;;;;;9.13;2.50;;;21.30;67.00;;;;;;2089456;28;20024;-87
2022/07/22 05:09:48;;;;;;;6.43;2.63;;;21.30;67.00;;;;;;2082756;28;20262;-86
2022/07/22 05:10:49;;;;;;;6.63;2.67;;;21.30;67.00;;;;;;2092553;28;20391;-87
2022/07/22 05:11:50;;;;;;;7.50;2.37;;;21.30;67.00;;;;;;2083582;28;20026;-87
2022/07/22 05:12:53;;;;;;;6.30;2.13;;;21.20;67.80;;;;;;2082962;28;20029;-87
2022/07/22 05:13:54;;;;;;;5.83;2.63;;;21.30;67.20;;;;;;2078765;28;20278;-87
2022/07/22 05:14:55;;;;;;;8.30;2.33;;;21.30;67.20;;;;;;2081786;28;20120;-87
2022/07/22 05:15:56;;;;;;;7.87;2.63;;;21.20;67.20;;;;;;2081055;28;20029;-87
2022/07/22 05:16:57;;;;;;;7.70;2.27;;;21.20;67.30;;;;;;2081650;28;20369;-87
2022/07/22 05:17:58;;;;;;;5.03;2.70;;;21.20;67.40;;;;;;2082679;28;20036;-87
2022/07/22 05:19:02;;;;;;;11.55;2.97;;;21.20;67.40;;;;;;2087777;28;20037;-87
2022/07/22 05:20:04;;;;;;;8.45;2.47;;;21.30;67.40;;;;;;2090953;28;20269;-87
2022/07/22 05:21:06;;;;;;;6.70;2.50;;;21.20;67.40;;;;;;2089897;28;20036;-86
2022/07/22 05:22:08;;;;;;;8.48;2.85;;;21.30;67.30;;;;;;2080620;28;20254;-87
2022/07/22 05:23:09;;;;;;;8.85;2.50;;;21.30;67.50;;;;;;2088602;28;20265;-87